createdAt,value
2023-03-26T00:02:06.892Z,8.45
2023-03-26T00:04:35.067Z,8.44
2023-03-26T00:07:03.300Z,8.41
2023-03-26T00:09:31.490Z,8.39
2023-03-26T00:11:59.665Z,8.40
2023-03-26T00:14:29.271Z,8.40
2023-03-26T00:16:57.527Z,8.42
2023-03-26T00:19:27.956Z,8.40
2023-03-26T00:21:57.740Z,8.42
2023-03-26T00:24:29.971Z,8.41
2023-03-26T00:26:59.801Z,8.36
2023-03-26T00:29:28.849Z,8.34
2023-03-26T00:31:57.115Z,8.35
2023-03-26T00:34:26.955Z,8.37
2023-03-26T00:36:55.215Z,8.41
2023-03-26T00:39:24.511Z,8.41
2023-03-26T00:41:54.550Z,8.43
2023-03-26T00:44:23.438Z,8.40
2023-03-26T00:46:51.688Z,8.39
2023-03-26T00:49:19.884Z,8.40
2023-03-26T00:51:49.444Z,8.38
2023-03-26T00:54:17.639Z,8.37
2023-03-26T00:56:45.860Z,8.35
2023-03-26T00:59:14.043Z,8.36
2023-03-26T01:01:42.381Z,8.36
2023-03-26T01:04:31.094Z,8.35
2023-03-26T01:07:03.950Z,8.34
2023-03-26T01:09:36.731Z,8.33
2023-03-26T01:12:07.988Z,8.35
2023-03-26T01:14:36.267Z,8.35
2023-03-26T01:17:07.206Z,8.37
2023-03-26T01:19:45.004Z,8.35
2023-03-26T01:22:18.634Z,8.33
2023-03-26T01:24:53.747Z,8.32
2023-03-26T01:27:28.302Z,8.30
2023-03-26T01:29:59.879Z,8.31
2023-03-26T01:32:40.052Z,8.30
2023-03-26T01:35:29.214Z,8.27
2023-03-26T01:38:10.542Z,8.21
2023-03-26T01:40:43.680Z,8.20
2023-03-26T01:43:14.741Z,8.17
2023-03-26T01:45:44.003Z,8.14
2023-03-26T01:48:12.940Z,8.11
2023-03-26T01:50:41.318Z,8.12
2023-03-26T01:53:12.701Z,8.12
2023-03-26T01:55:49.838Z,8.13
2023-03-26T01:58:24.842Z,8.14
2023-03-26T02:00:56.829Z,8.13
2023-03-26T02:03:29.210Z,8.16
2023-03-26T02:06:05.196Z,8.16
2023-03-26T02:08:36.381Z,8.12
2023-03-26T02:11:11.414Z,8.07
2023-03-26T02:13:40.432Z,8.03
2023-03-26T02:16:11.711Z,8.01
2023-03-26T02:18:41.928Z,7.98
2023-03-26T02:21:12.340Z,7.99
2023-03-26T02:23:42.202Z,7.97
2023-03-26T02:26:12.395Z,7.97
2023-03-26T02:28:40.779Z,7.93
2023-03-26T02:31:10.915Z,7.90
2023-03-26T02:33:39.642Z,7.86
2023-03-26T02:36:08.772Z,7.82
2023-03-26T02:38:37.002Z,7.81
2023-03-26T02:41:05.983Z,7.80
2023-03-26T02:43:35.731Z,7.80
2023-03-26T02:46:04.000Z,7.79
2023-03-26T02:48:34.715Z,7.77
2023-03-26T02:51:02.979Z,7.76
2023-03-26T02:53:31.420Z,7.74
2023-03-26T02:56:00.798Z,7.72
2023-03-26T02:58:30.689Z,7.69
2023-03-26T03:01:03.243Z,7.66
2023-03-26T03:03:31.645Z,7.64
2023-03-26T03:05:59.873Z,7.64
2023-03-26T03:08:29.344Z,7.62
2023-03-26T03:10:58.979Z,7.58
2023-03-26T03:13:27.138Z,7.59
2023-03-26T03:15:56.276Z,7.61
2023-03-26T03:18:26.199Z,7.59
2023-03-26T03:20:54.963Z,7.54
2023-03-26T03:23:23.193Z,7.46
2023-03-26T03:25:52.700Z,7.35
2023-03-26T03:28:21.550Z,7.29
2023-03-26T03:30:53.195Z,7.24
2023-03-26T03:33:21.636Z,7.22
2023-03-26T03:35:51.672Z,7.21
2023-03-26T03:38:20.266Z,7.18
2023-03-26T03:40:48.512Z,7.16
2023-03-26T03:43:16.728Z,7.13
2023-03-26T03:45:44.913Z,7.13
2023-03-26T03:48:13.114Z,7.11
2023-03-26T03:50:41.949Z,7.07
2023-03-26T03:53:16.197Z,7.01
2023-03-26T03:55:53.438Z,6.97
2023-03-26T03:58:22.884Z,6.94
2023-03-26T04:00:51.466Z,6.89
2023-03-26T04:03:33.746Z,6.88
2023-03-26T04:06:06.887Z,6.87
2023-03-26T04:08:36.614Z,6.85
2023-03-26T04:11:05.007Z,6.80
2023-03-26T04:13:33.202Z,6.71
2023-03-26T04:16:01.688Z,6.65
2023-03-26T04:18:30.372Z,6.58
2023-03-26T04:21:03.350Z,6.54
2023-03-26T04:23:32.051Z,6.52
2023-03-26T04:26:04.618Z,6.52
2023-03-26T04:28:35.816Z,6.52
2023-03-26T04:31:04.948Z,6.56
2023-03-26T04:33:34.760Z,6.60
2023-03-26T04:36:03.641Z,6.62
2023-03-26T04:38:33.667Z,6.61
2023-03-26T04:41:04.635Z,6.62
2023-03-26T04:43:35.563Z,6.61
2023-03-26T04:46:04.884Z,6.59
2023-03-26T04:48:33.098Z,6.59
2023-03-26T04:51:01.760Z,6.53
2023-03-26T04:53:29.988Z,6.43
2023-03-26T04:56:02.144Z,6.31
2023-03-26T04:58:33.187Z,6.22
2023-03-26T05:01:10.243Z,6.11
2023-03-26T05:03:41.307Z,6.02
2023-03-26T05:06:12.170Z,5.96
2023-03-26T05:08:41.827Z,5.87
2023-03-26T05:11:11.688Z,5.82
2023-03-26T05:13:42.896Z,5.73
2023-03-26T05:16:11.592Z,5.74
2023-03-26T05:18:40.084Z,5.79
2023-03-26T05:21:08.454Z,5.80
2023-03-26T05:23:36.659Z,5.83
2023-03-26T05:26:05.279Z,5.84
2023-03-26T05:28:33.482Z,5.84
2023-03-26T05:31:03.831Z,5.87
2023-03-26T05:33:32.199Z,5.89
2023-03-26T05:36:02.251Z,5.88
2023-03-26T05:38:31.048Z,5.89
2023-03-26T05:41:00.758Z,5.86
2023-03-26T05:43:29.367Z,5.77
2023-03-26T05:45:57.898Z,5.75
2023-03-26T05:48:28.374Z,5.73
2023-03-26T05:50:58.123Z,5.73
2023-03-26T05:53:27.893Z,5.71
2023-03-26T05:55:58.210Z,5.76
2023-03-26T05:58:27.225Z,5.79
2023-03-26T06:00:59.421Z,5.83
2023-03-26T06:03:29.556Z,5.84
2023-03-26T06:05:57.851Z,5.81
2023-03-26T06:08:26.183Z,5.83
2023-03-26T06:10:59.995Z,5.79
2023-03-26T06:13:28.593Z,5.77
2023-03-26T06:15:57.916Z,5.79
2023-03-26T06:18:26.491Z,5.82
2023-03-26T06:20:56.351Z,5.85
2023-03-26T06:23:24.748Z,5.82
2023-03-26T06:25:52.866Z,5.85
2023-03-26T06:28:21.083Z,5.95
2023-03-26T06:30:50.259Z,6.02
2023-03-26T06:33:18.661Z,6.07
2023-03-26T06:35:47.039Z,6.04
2023-03-26T06:38:16.503Z,6.05
2023-03-26T06:40:44.689Z,6.10
2023-03-26T06:43:12.964Z,6.10
2023-03-26T06:45:41.058Z,6.09
2023-03-26T06:48:09.801Z,6.08
2023-03-26T06:50:37.893Z,6.07
2023-03-26T06:53:06.105Z,6.07
2023-03-26T06:55:35.668Z,6.05
2023-03-26T06:58:03.901Z,6.04
2023-03-26T07:00:32.149Z,6.05
2023-03-26T07:03:00.272Z,6.08
2023-03-26T07:05:28.353Z,6.19
2023-03-26T07:07:56.534Z,6.32
2023-03-26T07:10:24.681Z,6.40
2023-03-26T07:12:54.400Z,6.48
2023-03-26T07:15:22.614Z,6.61
2023-03-26T07:17:50.858Z,6.75
2023-03-26T07:20:19.137Z,6.96
2023-03-26T07:22:47.898Z,7.24
2023-03-26T07:25:18.708Z,7.47
2023-03-26T07:27:55.071Z,7.61
2023-03-26T07:30:30.259Z,7.84
2023-03-26T07:33:02.231Z,8.09
2023-03-26T07:35:33.432Z,7.96
2023-03-26T07:38:18.829Z,7.81
2023-03-26T07:40:54.302Z,7.74
2023-03-26T07:43:34.881Z,7.58
2023-03-26T07:46:05.598Z,7.39
2023-03-26T07:48:40.992Z,7.43
2023-03-26T07:51:10.539Z,7.48
2023-03-26T07:53:39.060Z,7.56
2023-03-26T07:56:13.626Z,7.67
2023-03-26T07:58:58.012Z,7.87
2023-03-26T08:01:36.829Z,7.94
2023-03-26T08:04:25.631Z,7.98
2023-03-26T08:06:59.372Z,8.18
2023-03-26T08:09:31.898Z,8.41
2023-03-26T08:12:07.520Z,8.48
2023-03-26T08:14:45.394Z,8.48
2023-03-26T08:17:17.296Z,8.40
2023-03-26T08:19:52.320Z,8.14
2023-03-26T08:22:26.452Z,7.99
2023-03-26T08:25:17.712Z,8.04
2023-03-26T08:27:52.991Z,8.16
2023-03-26T08:30:23.469Z,8.21
2023-03-26T08:32:56.750Z,8.33
2023-03-26T08:35:25.410Z,8.54
2023-03-26T08:37:53.736Z,8.68
2023-03-26T08:40:36.455Z,8.70
2023-03-26T08:43:20.775Z,8.60
2023-03-26T08:46:10.384Z,8.36
2023-03-26T08:49:03.796Z,8.11
2023-03-26T08:52:01.922Z,8.21
2023-03-26T08:55:06.202Z,8.44
2023-03-26T08:58:10.732Z,8.61
2023-03-26T09:00:43.848Z,8.62
2023-03-26T09:03:36.260Z,8.58
2023-03-26T09:06:42.980Z,8.66
2023-03-26T09:09:40.356Z,8.54
2023-03-26T09:12:39.371Z,8.48
2023-03-26T09:15:46.953Z,9.08
2023-03-26T09:18:49.764Z,9.57
2023-03-26T09:21:32.573Z,9.82
2023-03-26T09:24:44.876Z,9.53
2023-03-26T09:27:27.406Z,9.57
2023-03-26T09:30:34.035Z,9.89
2023-03-26T09:33:24.762Z,10.35
2023-03-26T09:36:04.832Z,10.68
2023-03-26T09:38:42.926Z,10.63
2023-03-26T09:41:17.402Z,10.31
2023-03-26T09:44:23.164Z,9.96
2023-03-26T09:47:01.197Z,9.46
2023-03-26T09:49:49.197Z,9.01
2023-03-26T09:52:53.425Z,8.67
2023-03-26T09:55:30.569Z,8.70
2023-03-26T09:58:24.497Z,9.18
2023-03-26T10:01:05.542Z,9.91
2023-03-26T10:03:47.013Z,10.70
2023-03-26T10:06:28.029Z,11.14
2023-03-26T10:09:11.848Z,11.21
2023-03-26T10:11:58.754Z,10.86
2023-03-26T10:14:33.802Z,10.63
2023-03-26T10:17:11.317Z,10.27
2023-03-26T10:19:52.766Z,10.42
2023-03-26T10:22:30.542Z,10.66
2023-03-26T10:25:16.584Z,10.81
2023-03-26T10:27:52.452Z,11.17
2023-03-26T10:30:35.156Z,11.74
2023-03-26T10:33:14.119Z,12.06
2023-03-26T10:35:51.967Z,12.23
2023-03-26T10:38:25.567Z,12.12
2023-03-26T10:41:00.860Z,12.15
2023-03-26T10:43:46.409Z,12.20
2023-03-26T10:46:31.022Z,12.10
2023-03-26T10:49:28.568Z,12.10
2023-03-26T10:51:59.368Z,12.13
2023-03-26T10:54:36.616Z,12.57
2023-03-26T10:57:08.964Z,12.74
2023-03-26T10:59:37.106Z,12.97
2023-03-26T11:02:29.418Z,12.91
2023-03-26T11:05:15.645Z,12.88
2023-03-26T11:07:51.884Z,12.97
2023-03-26T11:10:26.143Z,13.12
2023-03-26T11:12:58.063Z,13.25
2023-03-26T11:15:29.404Z,13.50
2023-03-26T11:18:07.623Z,13.63
2023-03-26T11:20:39.884Z,13.93
2023-03-26T11:23:22.224Z,13.93
2023-03-26T11:26:06.658Z,13.47
2023-03-26T11:29:03.476Z,12.72
2023-03-26T11:31:56.779Z,11.72
2023-03-26T11:34:29.291Z,11.05
2023-03-26T11:36:58.484Z,11.15
2023-03-26T11:39:28.541Z,11.42
2023-03-26T11:42:05.063Z,11.68
2023-03-26T11:44:35.716Z,11.74
2023-03-26T11:47:10.105Z,12.25
2023-03-26T11:49:40.431Z,12.64
2023-03-26T11:52:12.207Z,12.94
2023-03-26T11:54:40.288Z,13.30
2023-03-26T11:57:12.186Z,13.66
2023-03-26T11:59:55.437Z,13.53
2023-03-26T12:02:29.941Z,13.11
2023-03-26T12:05:14.712Z,12.62
2023-03-26T12:07:48.310Z,12.36
2023-03-26T12:10:34.799Z,12.02
2023-03-26T12:13:04.316Z,11.69
2023-03-26T12:15:32.696Z,11.68
2023-03-26T12:18:18.632Z,12.16
2023-03-26T12:20:49.490Z,12.61
2023-03-26T12:23:35.995Z,13.06
2023-03-26T12:26:13.179Z,13.16
2023-03-26T12:28:48.183Z,13.01
2023-03-26T12:31:18.351Z,12.69
2023-03-26T12:33:52.848Z,12.50
2023-03-26T12:36:26.659Z,12.82
2023-03-26T12:39:16.279Z,12.96
2023-03-26T12:43:19.755Z,13.34
2023-03-26T12:44:54.824Z,13.85
2023-03-26T12:48:00.299Z,14.33
2023-03-26T12:50:14.968Z,14.70
2023-03-26T12:53:03.444Z,15.01
2023-03-26T12:55:42.270Z,15.10
2023-03-26T12:58:33.625Z,14.93
2023-03-26T13:01:07.631Z,14.32
2023-03-26T13:03:44.742Z,13.75
2023-03-26T13:06:30.779Z,13.36
2023-03-26T13:09:26.097Z,12.80
2023-03-26T13:12:03.751Z,12.69
2023-03-26T13:14:39.785Z,12.94
2023-03-26T13:17:16.072Z,13.46
2023-03-26T13:19:47.718Z,13.89
2023-03-26T13:22:24.569Z,13.99
2023-03-26T13:24:58.313Z,14.12
2023-03-26T13:27:38.215Z,14.08
2023-03-26T13:30:16.038Z,14.30
2023-03-26T13:32:57.269Z,14.61
2023-03-26T13:35:31.155Z,14.72
2023-03-26T13:38:04.512Z,14.23
2023-03-26T13:40:43.104Z,13.61
2023-03-26T13:43:25.699Z,12.71
2023-03-26T13:46:01.556Z,12.11
2023-03-26T13:48:33.042Z,11.96
2023-03-26T13:51:06.732Z,12.09
2023-03-26T13:53:41.961Z,12.31
2023-03-26T13:56:15.801Z,12.60
2023-03-26T13:58:48.810Z,12.65
2023-03-26T14:01:20.719Z,12.64
2023-03-26T14:03:54.858Z,12.75
2023-03-26T14:06:33.976Z,12.53
2023-03-26T14:09:05.071Z,12.32
2023-03-26T14:11:44.545Z,11.84
2023-03-26T14:14:15.917Z,11.51
2023-03-26T14:16:47.957Z,11.41
2023-03-26T14:19:41.165Z,10.98
2023-03-26T14:22:18.895Z,10.55
2023-03-26T14:25:15.049Z,10.27
2023-03-26T14:27:57.880Z,10.22
2023-03-26T14:30:54.367Z,10.22
2023-03-26T14:33:42.987Z,10.23
2023-03-26T14:36:17.243Z,10.51
2023-03-26T14:39:05.710Z,10.77
2023-03-26T14:41:41.603Z,10.89
2023-03-26T14:44:48.026Z,11.02
2023-03-26T14:47:19.644Z,11.29
2023-03-26T14:50:31.502Z,11.44
2023-03-26T14:53:01.887Z,11.16
2023-03-26T14:55:52.114Z,10.92
2023-03-26T14:58:53.559Z,10.69
2023-03-26T15:01:29.181Z,10.39
2023-03-26T15:04:34.537Z,10.48
2023-03-26T15:07:25.613Z,10.70
2023-03-26T15:10:23.934Z,10.78
2023-03-26T15:13:31.211Z,10.75
2023-03-26T15:16:17.913Z,10.67
2023-03-26T15:19:16.786Z,10.55
2023-03-26T15:22:20.430Z,10.51
2023-03-26T15:25:21.182Z,10.44
2023-03-26T15:28:10.277Z,10.53
2023-03-26T15:31:22.925Z,10.59
2023-03-26T15:34:23.397Z,10.63
2023-03-26T15:37:30.441Z,10.60
2023-03-26T15:40:26.050Z,10.50
2023-03-26T15:43:01.451Z,10.43
2023-03-26T15:45:40.831Z,10.39
2023-03-26T15:48:34.238Z,10.35
2023-03-26T15:51:30.059Z,10.26
2023-03-26T15:54:01.299Z,10.20
2023-03-26T15:56:49.156Z,10.14
2023-03-26T15:59:30.886Z,10.05
2023-03-26T16:02:06.678Z,9.90
2023-03-26T16:04:50.394Z,9.86
2023-03-26T16:07:50.430Z,9.88
2023-03-26T16:10:27.980Z,9.90
2023-03-26T16:13:12.502Z,9.88
2023-03-26T16:15:41.327Z,9.87
2023-03-26T16:18:26.634Z,9.77
2023-03-26T16:20:55.897Z,9.76
2023-03-26T16:23:31.296Z,9.75
2023-03-26T16:26:12.249Z,9.69
2023-03-26T16:29:07.828Z,9.61
2023-03-26T16:31:39.466Z,9.53
2023-03-26T16:34:38.708Z,9.44
2023-03-26T16:37:27.650Z,9.35
2023-03-26T16:40:17.771Z,9.23
2023-03-26T16:42:49.520Z,9.13
2023-03-26T16:45:26.413Z,9.04
2023-03-26T16:48:00.988Z,8.98
2023-03-26T16:50:41.335Z,8.93
2023-03-26T16:53:22.120Z,8.83
2023-03-26T16:55:57.792Z,8.75
2023-03-26T16:58:31.797Z,8.66
2023-03-26T17:01:08.762Z,8.58
2023-03-26T17:03:52.391Z,8.49
2023-03-26T17:07:01.631Z,8.44
2023-03-26T17:09:37.749Z,8.39
2023-03-26T17:12:15.655Z,8.35
2023-03-26T17:14:56.620Z,8.30
2023-03-26T17:17:39.543Z,8.26
2023-03-26T17:20:18.269Z,8.26
2023-03-26T17:22:48.659Z,8.25
2023-03-26T17:25:25.894Z,8.19
2023-03-26T17:28:08.598Z,8.18
2023-03-26T17:31:01.974Z,8.14
2023-03-26T17:33:34.674Z,8.12
2023-03-26T17:36:29.161Z,8.08
2023-03-26T17:39:03.523Z,8.03
2023-03-26T17:41:54.411Z,7.99
2023-03-26T17:44:43.371Z,7.84
2023-03-26T17:47:43.291Z,7.75
2023-03-26T17:50:15.678Z,7.70
2023-03-26T17:52:56.402Z,7.67
2023-03-26T17:55:30.492Z,7.61
2023-03-26T17:58:00.453Z,7.56
2023-03-26T18:00:33.868Z,7.56
2023-03-26T18:03:03.872Z,7.57
2023-03-26T18:05:32.187Z,7.52
2023-03-26T18:08:38.792Z,7.50
2023-03-26T18:11:37.358Z,7.48
2023-03-26T18:14:47.195Z,7.45
2023-03-26T18:17:16.996Z,7.39
2023-03-26T18:19:49.779Z,7.33
2023-03-26T18:22:21.102Z,7.25
2023-03-26T18:24:49.769Z,7.18
2023-03-26T18:27:20.113Z,7.11
2023-03-26T18:30:01.841Z,7.04
2023-03-26T18:32:33.778Z,7.00
2023-03-26T18:35:14.300Z,6.89
2023-03-26T18:37:44.281Z,6.84
2023-03-26T18:40:16.746Z,6.79
2023-03-26T18:42:46.960Z,6.73
2023-03-26T18:45:24.622Z,6.65
2023-03-26T18:47:57.261Z,6.56
2023-03-26T18:50:28.585Z,6.43
2023-03-26T18:53:00.014Z,6.33
2023-03-26T18:55:29.737Z,6.26
2023-03-26T18:57:58.484Z,6.14
2023-03-26T19:00:30.373Z,6.08
2023-03-26T19:03:05.870Z,6.01
2023-03-26T19:05:34.679Z,5.91
2023-03-26T19:08:04.883Z,5.81
2023-03-26T19:10:34.006Z,5.74
2023-03-26T19:13:03.230Z,5.69
2023-03-26T19:15:31.943Z,5.64
2023-03-26T19:18:07.316Z,5.54
2023-03-26T19:20:41.388Z,5.51
2023-03-26T19:23:13.812Z,5.45
2023-03-26T19:25:43.556Z,5.42
2023-03-26T19:28:20.814Z,5.40
2023-03-26T19:30:53.516Z,5.35
2023-03-26T19:33:23.381Z,5.26
2023-03-26T19:35:54.969Z,5.23
2023-03-26T19:38:25.807Z,5.17
2023-03-26T19:40:56.057Z,5.14
2023-03-26T19:43:24.862Z,5.12
2023-03-26T19:46:00.601Z,5.02
2023-03-26T19:48:45.929Z,4.99
2023-03-26T19:51:21.013Z,4.92
2023-03-26T19:53:54.267Z,4.90
2023-03-26T19:56:23.202Z,4.85
2023-03-26T19:58:51.966Z,4.80
2023-03-26T20:01:22.142Z,4.73
2023-03-26T20:03:54.265Z,4.69
2023-03-26T20:09:12.596Z,4.58
2023-03-26T20:11:41.311Z,4.56
2023-03-26T20:14:13.916Z,4.52
2023-03-26T20:16:43.803Z,4.47
2023-03-26T20:19:15.400Z,4.44
2023-03-26T20:21:44.436Z,4.42
2023-03-26T20:24:15.022Z,4.39
2023-03-26T20:26:43.212Z,4.37
2023-03-26T20:29:11.704Z,4.34
2023-03-26T20:31:41.463Z,4.29
2023-03-26T20:34:16.438Z,4.28
2023-03-26T20:36:45.499Z,4.26
2023-03-26T20:39:13.836Z,4.22
2023-03-26T20:41:45.993Z,4.20
2023-03-26T20:44:15.780Z,4.17
2023-03-26T20:46:44.754Z,4.16
2023-03-26T20:49:15.056Z,4.09
2023-03-26T20:51:45.352Z,4.05
2023-03-26T20:54:17.634Z,4.00
2023-03-26T20:56:47.772Z,3.97
2023-03-26T20:59:22.409Z,3.95
2023-03-26T21:01:51.385Z,3.89
2023-03-26T21:04:20.155Z,3.87
2023-03-26T21:06:50.736Z,3.83
2023-03-26T21:09:23.661Z,3.80
2023-03-26T21:11:57.881Z,3.72
2023-03-26T21:14:27.172Z,3.68
2023-03-26T21:16:55.930Z,3.66
2023-03-26T21:19:24.513Z,3.61
2023-03-26T21:22:09.667Z,3.59
2023-03-26T21:24:58.285Z,3.55
2023-03-26T21:27:30.238Z,3.52
2023-03-26T21:30:00.018Z,3.49
2023-03-26T21:32:28.938Z,3.47
2023-03-26T21:34:59.520Z,3.45
2023-03-26T21:37:29.830Z,3.41
2023-03-26T21:39:59.924Z,3.39
2023-03-26T21:42:29.410Z,3.36
2023-03-26T21:44:58.086Z,3.34
2023-03-26T21:47:27.033Z,3.34
2023-03-26T21:49:55.831Z,3.29
2023-03-26T21:52:25.250Z,3.27
2023-03-26T21:54:58.036Z,3.25
2023-03-26T21:57:37.799Z,3.23
2023-03-26T22:00:15.185Z,3.21
2023-03-26T22:02:55.584Z,3.18
2023-03-26T22:05:30.440Z,3.18
2023-03-26T22:08:02.929Z,3.13
2023-03-26T22:10:32.891Z,3.13
2023-03-26T22:13:01.134Z,3.10
2023-03-26T22:15:30.774Z,3.07
2023-03-26T22:18:02.122Z,3.07
2023-03-26T22:20:30.295Z,3.05
2023-03-26T22:22:58.949Z,3.04
2023-03-26T22:25:27.639Z,3.01
2023-03-26T22:27:57.507Z,2.99
2023-03-26T22:30:25.700Z,2.97
2023-03-26T22:32:53.843Z,2.94
2023-03-26T22:35:21.992Z,2.92
2023-03-26T22:37:50.447Z,2.89
2023-03-26T22:40:18.715Z,2.85
2023-03-26T22:42:46.905Z,2.84
2023-03-26T22:45:17.231Z,2.86
2023-03-26T22:47:45.453Z,2.84
2023-03-26T22:50:13.733Z,2.82
2023-03-26T22:52:41.931Z,2.79
2023-03-26T22:55:11.098Z,2.78
2023-03-26T22:57:39.396Z,2.75
2023-03-26T23:00:16.093Z,2.72
2023-03-26T23:02:47.539Z,2.74
2023-03-26T23:05:17.384Z,2.74
2023-03-26T23:07:45.985Z,2.75
2023-03-26T23:10:14.429Z,2.72
2023-03-26T23:12:42.586Z,2.71
2023-03-26T23:15:11.509Z,2.70
2023-03-26T23:17:40.312Z,2.70
2023-03-26T23:20:14.982Z,2.69
2023-03-26T23:22:43.911Z,2.69
2023-03-26T23:25:12.724Z,2.68
2023-03-26T23:27:41.470Z,2.66
2023-03-26T23:30:11.830Z,2.64
2023-03-26T23:32:41.042Z,2.60
2023-03-26T23:35:11.417Z,2.59
2023-03-26T23:37:42.528Z,2.54
2023-03-26T23:40:12.461Z,2.53
2023-03-26T23:42:40.760Z,2.51
2023-03-26T23:45:09.619Z,2.50
2023-03-26T23:47:42.252Z,2.52
2023-03-26T23:50:12.954Z,2.53
2023-03-26T23:52:41.283Z,2.54
2023-03-26T23:55:10.019Z,2.59
2023-03-26T23:57:38.205Z,2.64
